sensor_id;sensor_type;location;lat;lon;timestamp;temperature;humidity
22290;DHT22;11313;50.116;8.424;2023-09-19T00:01:06;24.60;64.70
22290;DHT22;11313;50.116;8.424;2023-09-19T00:03:34;24.60;65.50
22290;DHT22;11313;50.116;8.424;2023-09-19T00:06:01;24.50;64.70
22290;DHT22;11313;50.116;8.424;2023-09-19T00:08:26;24.60;64.70
22290;DHT22;11313;50.116;8.424;2023-09-19T00:10:54;24.50;64.70
22290;DHT22;11313;50.116;8.424;2023-09-19T00:13:20;24.60;64.70
22290;DHT22;11313;50.116;8.424;2023-09-19T00:15:47;24.60;64.70
22290;DHT22;11313;50.116;8.424;2023-09-19T00:18:19;24.60;64.70
22290;DHT22;11313;50.116;8.424;2023-09-19T00:20:46;24.50;64.70
22290;DHT22;11313;50.116;8.424;2023-09-19T00:23:13;24.60;64.80
22290;DHT22;11313;50.116;8.424;2023-09-19T00:25:39;24.60;64.70
22290;DHT22;11313;50.116;8.424;2023-09-19T00:28:05;24.60;64.80
22290;DHT22;11313;50.116;8.424;2023-09-19T00:30:33;24.60;64.70
22290;DHT22;11313;50.116;8.424;2023-09-19T00:32:58;24.60;64.70
22290;DHT22;11313;50.116;8.424;2023-09-19T00:35:24;24.50;64.60
22290;DHT22;11313;50.116;8.424;2023-09-19T00:37:50;24.60;64.70
22290;DHT22;11313;50.116;8.424;2023-09-19T00:40:16;24.60;64.70
22290;DHT22;11313;50.116;8.424;2023-09-19T00:42:46;24.50;64.60
22290;DHT22;11313;50.116;8.424;2023-09-19T00:45:13;24.50;64.60
22290;DHT22;11313;50.116;8.424;2023-09-19T00:47:42;24.60;64.70
22290;DHT22;11313;50.116;8.424;2023-09-19T00:50:09;24.60;64.70
22290;DHT22;11313;50.116;8.424;2023-09-19T00:52:37;24.60;64.70
22290;DHT22;11313;50.116;8.424;2023-09-19T00:55:05;24.50;64.70
22290;DHT22;11313;50.116;8.424;2023-09-19T00:57:32;24.50;64.60
22290;DHT22;11313;50.116;8.424;2023-09-19T00:59:59;24.60;64.80
22290;DHT22;11313;50.116;8.424;2023-09-19T01:02:26;24.60;64.70
22290;DHT22;11313;50.116;8.424;2023-09-19T01:04:54;24.60;64.70
22290;DHT22;11313;50.116;8.424;2023-09-19T01:07:20;24.60;64.70
22290;DHT22;11313;50.116;8.424;2023-09-19T01:09:48;24.60;64.70
22290;DHT22;11313;50.116;8.424;2023-09-19T01:12:16;24.60;64.80
22290;DHT22;11313;50.116;8.424;2023-09-19T01:14:54;24.60;64.70
22290;DHT22;11313;50.116;8.424;2023-09-19T01:17:30;24.50;64.70
22290;DHT22;11313;50.116;8.424;2023-09-19T01:31:02;24.60;64.70
22290;DHT22;11313;50.116;8.424;2023-09-19T01:33:53;24.60;64.70
22290;DHT22;11313;50.116;8.424;2023-09-19T01:36:16;24.50;64.60
22290;DHT22;11313;50.116;8.424;2023-09-19T01:38:42;24.60;64.70
22290;DHT22;11313;50.116;8.424;2023-09-19T01:41:11;24.60;64.70
22290;DHT22;11313;50.116;8.424;2023-09-19T01:43:41;24.50;64.60
22290;DHT22;11313;50.116;8.424;2023-09-19T01:46:19;24.50;64.60
22290;DHT22;11313;50.116;8.424;2023-09-19T01:49:07;24.50;64.60
22290;DHT22;11313;50.116;8.424;2023-09-19T01:52:10;24.50;64.60
22290;DHT22;11313;50.116;8.424;2023-09-19T01:55:02;24.50;64.70
22290;DHT22;11313;50.116;8.424;2023-09-19T01:57:40;24.50;64.60
22290;DHT22;11313;50.116;8.424;2023-09-19T02:00:10;24.50;64.60
22290;DHT22;11313;50.116;8.424;2023-09-19T02:02:43;24.50;64.60
22290;DHT22;11313;50.116;8.424;2023-09-19T02:05:10;24.50;64.60
22290;DHT22;11313;50.116;8.424;2023-09-19T02:07:38;24.60;64.70
22290;DHT22;11313;50.116;8.424;2023-09-19T02:10:05;24.60;64.70
22290;DHT22;11313;50.116;8.424;2023-09-19T02:12:32;24.50;64.60
22290;DHT22;11313;50.116;8.424;2023-09-19T02:14:58;24.50;64.60
22290;DHT22;11313;50.116;8.424;2023-09-19T02:17:25;24.50;64.60
22290;DHT22;11313;50.116;8.424;2023-09-19T02:19:54;24.50;64.60
22290;DHT22;11313;50.116;8.424;2023-09-19T02:22:20;24.50;64.60
22290;DHT22;11313;50.116;8.424;2023-09-19T02:24:46;24.50;64.60
22290;DHT22;11313;50.116;8.424;2023-09-19T02:27:13;24.60;64.60
22290;DHT22;11313;50.116;8.424;2023-09-19T02:29:41;24.60;64.60
22290;DHT22;11313;50.116;8.424;2023-09-19T02:32:06;24.50;64.70
22290;DHT22;11313;50.116;8.424;2023-09-19T02:34:32;24.50;64.60
22290;DHT22;11313;50.116;8.424;2023-09-19T02:37:04;24.60;64.60
22290;DHT22;11313;50.116;8.424;2023-09-19T02:39:38;24.60;64.60
22290;DHT22;11313;50.116;8.424;2023-09-19T02:42:04;24.60;64.60
22290;DHT22;11313;50.116;8.424;2023-09-19T02:44:30;24.50;64.60
22290;DHT22;11313;50.116;8.424;2023-09-19T02:46:55;24.50;64.60
22290;DHT22;11313;50.116;8.424;2023-09-19T02:49:22;24.50;64.50
22290;DHT22;11313;50.116;8.424;2023-09-19T02:51:48;24.50;64.50
22290;DHT22;11313;50.116;8.424;2023-09-19T02:54:14;24.50;64.50
22290;DHT22;11313;50.116;8.424;2023-09-19T02:56:41;24.50;64.50
22290;DHT22;11313;50.116;8.424;2023-09-19T02:59:06;24.60;64.60
22290;DHT22;11313;50.116;8.424;2023-09-19T03:01:32;24.50;64.50
22290;DHT22;11313;50.116;8.424;2023-09-19T03:03:59;24.50;64.50
22290;DHT22;11313;50.116;8.424;2023-09-19T03:06:24;24.60;64.50
22290;DHT22;11313;50.116;8.424;2023-09-19T03:08:50;24.60;64.50
22290;DHT22;11313;50.116;8.424;2023-09-19T03:11:17;24.50;64.50
22290;DHT22;11313;50.116;8.424;2023-09-19T03:13:50;24.50;64.40
22290;DHT22;11313;50.116;8.424;2023-09-19T03:16:16;24.50;64.50
22290;DHT22;11313;50.116;8.424;2023-09-19T03:18:41;24.50;64.40
22290;DHT22;11313;50.116;8.424;2023-09-19T03:21:07;24.50;64.40
22290;DHT22;11313;50.116;8.424;2023-09-19T03:23:32;24.50;64.40
22290;DHT22;11313;50.116;8.424;2023-09-19T03:25:58;24.50;64.40
22290;DHT22;11313;50.116;8.424;2023-09-19T03:28:24;24.50;64.40
22290;DHT22;11313;50.116;8.424;2023-09-19T03:31:03;24.60;64.40
22290;DHT22;11313;50.116;8.424;2023-09-19T03:33:29;24.50;64.40
22290;DHT22;11313;50.116;8.424;2023-09-19T03:35:59;24.60;64.50
22290;DHT22;11313;50.116;8.424;2023-09-19T03:38:26;24.50;64.40
22290;DHT22;11313;50.116;8.424;2023-09-19T03:40:53;24.60;64.50
22290;DHT22;11313;50.116;8.424;2023-09-19T03:43:18;24.50;64.40
22290;DHT22;11313;50.116;8.424;2023-09-19T03:45:44;24.50;64.40
22290;DHT22;11313;50.116;8.424;2023-09-19T03:48:12;24.50;64.40
22290;DHT22;11313;50.116;8.424;2023-09-19T03:50:38;24.50;64.40
22290;DHT22;11313;50.116;8.424;2023-09-19T03:53:04;24.50;64.30
22290;DHT22;11313;50.116;8.424;2023-09-19T03:55:30;24.50;64.30
22290;DHT22;11313;50.116;8.424;2023-09-19T03:57:56;24.50;64.40
22290;DHT22;11313;50.116;8.424;2023-09-19T04:00:22;24.50;64.30
22290;DHT22;11313;50.116;8.424;2023-09-19T04:02:51;24.50;64.30
22290;DHT22;11313;50.116;8.424;2023-09-19T04:05:17;24.50;64.30
22290;DHT22;11313;50.116;8.424;2023-09-19T04:07:42;24.50;64.30
22290;DHT22;11313;50.116;8.424;2023-09-19T04:10:08;24.50;64.30
22290;DHT22;11313;50.116;8.424;2023-09-19T04:12:37;24.50;64.20
22290;DHT22;11313;50.116;8.424;2023-09-19T04:15:02;24.50;64.20
22290;DHT22;11313;50.116;8.424;2023-09-19T04:17:28;24.50;64.20
22290;DHT22;11313;50.116;8.424;2023-09-19T04:19:54;24.50;64.20
22290;DHT22;11313;50.116;8.424;2023-09-19T04:22:19;24.50;64.20
22290;DHT22;11313;50.116;8.424;2023-09-19T04:24:45;24.50;64.20
22290;DHT22;11313;50.116;8.424;2023-09-19T04:27:10;24.60;64.30
22290;DHT22;11313;50.116;8.424;2023-09-19T04:29:39;24.60;64.20
22290;DHT22;11313;50.116;8.424;2023-09-19T04:32:07;24.60;64.20
22290;DHT22;11313;50.116;8.424;2023-09-19T04:34:33;24.60;64.20
22290;DHT22;11313;50.116;8.424;2023-09-19T04:36:59;24.60;64.20
22290;DHT22;11313;50.116;8.424;2023-09-19T04:39:26;24.60;64.20
22290;DHT22;11313;50.116;8.424;2023-09-19T04:41:52;24.60;64.20
22290;DHT22;11313;50.116;8.424;2023-09-19T04:44:18;24.60;64.20
22290;DHT22;11313;50.116;8.424;2023-09-19T04:46:44;24.50;64.00
22290;DHT22;11313;50.116;8.424;2023-09-19T04:49:09;24.60;64.20
22290;DHT22;11313;50.116;8.424;2023-09-19T04:51:35;24.60;64.20
22290;DHT22;11313;50.116;8.424;2023-09-19T04:54:01;24.60;64.20
22290;DHT22;11313;50.116;8.424;2023-09-19T04:56:28;24.60;64.20
22290;DHT22;11313;50.116;8.424;2023-09-19T04:58:58;24.60;64.20
22290;DHT22;11313;50.116;8.424;2023-09-19T05:01:24;24.60;64.10
22290;DHT22;11313;50.116;8.424;2023-09-19T05:03:49;24.60;64.10
22290;DHT22;11313;50.116;8.424;2023-09-19T05:06:21;24.60;64.20
22290;DHT22;11313;50.116;8.424;2023-09-19T05:08:50;24.60;64.20
22290;DHT22;11313;50.116;8.424;2023-09-19T05:11:19;24.60;64.10
22290;DHT22;11313;50.116;8.424;2023-09-19T05:13:47;24.60;64.00
22290;DHT22;11313;50.116;8.424;2023-09-19T05:16:12;24.60;64.10
22290;DHT22;11313;50.116;8.424;2023-09-19T05:18:38;24.60;64.00
22290;DHT22;11313;50.116;8.424;2023-09-19T05:21:03;24.60;64.10
22290;DHT22;11313;50.116;8.424;2023-09-19T05:23:29;24.50;64.00
22290;DHT22;11313;50.116;8.424;2023-09-19T05:25:54;24.60;64.00
22290;DHT22;11313;50.116;8.424;2023-09-19T05:28:22;24.60;64.00
22290;DHT22;11313;50.116;8.424;2023-09-19T05:30:47;24.60;64.00
22290;DHT22;11313;50.116;8.424;2023-09-19T05:33:14;24.60;64.00
22290;DHT22;11313;50.116;8.424;2023-09-19T05:35:39;24.60;64.30
22290;DHT22;11313;50.116;8.424;2023-09-19T05:38:07;24.60;65.20
22290;DHT22;11313;50.116;8.424;2023-09-19T05:40:34;24.60;64.60
22290;DHT22;11313;50.116;8.424;2023-09-19T05:43:00;24.60;64.50
22290;DHT22;11313;50.116;8.424;2023-09-19T05:45:26;24.60;64.50
22290;DHT22;11313;50.116;8.424;2023-09-19T05:47:53;24.60;64.40
22290;DHT22;11313;50.116;8.424;2023-09-19T05:50:29;24.70;65.20
22290;DHT22;11313;50.116;8.424;2023-09-19T05:52:57;24.70;64.40
22290;DHT22;11313;50.116;8.424;2023-09-19T05:55:23;24.70;64.40
22290;DHT22;11313;50.116;8.424;2023-09-19T05:57:52;24.60;64.30
22290;DHT22;11313;50.116;8.424;2023-09-19T06:00:22;24.70;64.30
22290;DHT22;11313;50.116;8.424;2023-09-19T06:02:55;24.70;64.20
22290;DHT22;11313;50.116;8.424;2023-09-19T06:05:21;24.70;64.10
22290;DHT22;11313;50.116;8.424;2023-09-19T06:07:47;24.70;64.00
22290;DHT22;11313;50.116;8.424;2023-09-19T06:10:13;24.70;63.90
22290;DHT22;11313;50.116;8.424;2023-09-19T06:12:40;24.70;63.80
22290;DHT22;11313;50.116;8.424;2023-09-19T06:15:09;24.70;63.80
22290;DHT22;11313;50.116;8.424;2023-09-19T06:17:38;24.70;63.60
22290;DHT22;11313;50.116;8.424;2023-09-19T06:20:06;24.70;63.50
22290;DHT22;11313;50.116;8.424;2023-09-19T06:22:43;24.70;63.50
22290;DHT22;11313;50.116;8.424;2023-09-19T06:25:13;24.70;63.40
22290;DHT22;11313;50.116;8.424;2023-09-19T06:27:46;24.70;63.40
22290;DHT22;11313;50.116;8.424;2023-09-19T06:30:12;24.70;63.40
22290;DHT22;11313;50.116;8.424;2023-09-19T06:32:39;24.70;63.40
22290;DHT22;11313;50.116;8.424;2023-09-19T06:35:05;24.70;63.40
22290;DHT22;11313;50.116;8.424;2023-09-19T06:37:35;24.70;63.40
22290;DHT22;11313;50.116;8.424;2023-09-19T06:40:02;24.80;63.30
22290;DHT22;11313;50.116;8.424;2023-09-19T06:42:28;24.80;63.30
22290;DHT22;11313;50.116;8.424;2023-09-19T06:44:53;24.80;63.30
22290;DHT22;11313;50.116;8.424;2023-09-19T06:47:19;24.80;63.30
22290;DHT22;11313;50.116;8.424;2023-09-19T06:49:45;24.80;63.20
22290;DHT22;11313;50.116;8.424;2023-09-19T06:52:11;24.80;63.20
22290;DHT22;11313;50.116;8.424;2023-09-19T06:54:36;24.80;63.10
22290;DHT22;11313;50.116;8.424;2023-09-19T06:57:03;24.80;63.10
22290;DHT22;11313;50.116;8.424;2023-09-19T06:59:28;24.80;63.10
22290;DHT22;11313;50.116;8.424;2023-09-19T07:01:54;24.80;63.00
22290;DHT22;11313;50.116;8.424;2023-09-19T07:04:20;24.80;63.00
22290;DHT22;11313;50.116;8.424;2023-09-19T07:06:52;24.80;62.90
22290;DHT22;11313;50.116;8.424;2023-09-19T07:09:17;24.80;63.60
22290;DHT22;11313;50.116;8.424;2023-09-19T07:11:47;24.80;62.90
22290;DHT22;11313;50.116;8.424;2023-09-19T07:14:16;24.80;62.80
22290;DHT22;11313;50.116;8.424;2023-09-19T07:16:41;24.80;62.70
22290;DHT22;11313;50.116;8.424;2023-09-19T07:19:09;24.80;62.70
22290;DHT22;11313;50.116;8.424;2023-09-19T07:21:35;24.80;62.70
22290;DHT22;11313;50.116;8.424;2023-09-19T07:24:01;24.80;62.60
22290;DHT22;11313;50.116;8.424;2023-09-19T07:26:27;24.90;62.70
22290;DHT22;11313;50.116;8.424;2023-09-19T07:28:53;24.80;62.60
22290;DHT22;11313;50.116;8.424;2023-09-19T07:31:19;24.90;62.70
22290;DHT22;11313;50.116;8.424;2023-09-19T07:33:45;24.90;62.60
22290;DHT22;11313;50.116;8.424;2023-09-19T07:36:11;24.90;62.60
22290;DHT22;11313;50.116;8.424;2023-09-19T07:38:39;24.90;62.50
22290;DHT22;11313;50.116;8.424;2023-09-19T07:41:05;24.70;62.40
22290;DHT22;11313;50.116;8.424;2023-09-19T07:43:30;24.90;62.50
22290;DHT22;11313;50.116;8.424;2023-09-19T07:45:57;24.90;62.50
22290;DHT22;11313;50.116;8.424;2023-09-19T07:48:22;24.90;62.40
22290;DHT22;11313;50.116;8.424;2023-09-19T07:50:49;24.90;62.30
22290;DHT22;11313;50.116;8.424;2023-09-19T07:53:15;24.90;62.30
22290;DHT22;11313;50.116;8.424;2023-09-19T07:55:42;24.90;62.30
22290;DHT22;11313;50.116;8.424;2023-09-19T07:58:09;24.90;62.30
22290;DHT22;11313;50.116;8.424;2023-09-19T08:00:34;24.90;62.30
22290;DHT22;11313;50.116;8.424;2023-09-19T08:03:00;24.90;62.30
22290;DHT22;11313;50.116;8.424;2023-09-19T08:05:26;25.00;62.30
22290;DHT22;11313;50.116;8.424;2023-09-19T08:07:52;24.90;62.20
22290;DHT22;11313;50.116;8.424;2023-09-19T08:10:21;24.90;62.20
22290;DHT22;11313;50.116;8.424;2023-09-19T08:12:48;25.00;62.20
22290;DHT22;11313;50.116;8.424;2023-09-19T08:15:18;24.90;62.20
22290;DHT22;11313;50.116;8.424;2023-09-19T08:17:45;24.90;62.10
22290;DHT22;11313;50.116;8.424;2023-09-19T08:20:11;24.90;62.00
22290;DHT22;11313;50.116;8.424;2023-09-19T08:22:53;24.90;62.00
22290;DHT22;11313;50.116;8.424;2023-09-19T08:25:22;24.90;62.00
22290;DHT22;11313;50.116;8.424;2023-09-19T08:27:49;25.00;62.00
22290;DHT22;11313;50.116;8.424;2023-09-19T08:30:19;25.00;62.00
22290;DHT22;11313;50.116;8.424;2023-09-19T08:32:58;25.00;62.00
22290;DHT22;11313;50.116;8.424;2023-09-19T08:35:24;25.00;62.00
22290;DHT22;11313;50.116;8.424;2023-09-19T08:37:50;25.00;62.00
22290;DHT22;11313;50.116;8.424;2023-09-19T08:40:17;25.00;61.90
22290;DHT22;11313;50.116;8.424;2023-09-19T08:42:54;25.00;62.00
22290;DHT22;11313;50.116;8.424;2023-09-19T08:45:22;25.00;61.90
22290;DHT22;11313;50.116;8.424;2023-09-19T08:50:29;25.00;61.90
22290;DHT22;11313;50.116;8.424;2023-09-19T08:53:01;25.00;61.80
22290;DHT22;11313;50.116;8.424;2023-09-19T08:55:31;25.00;61.80
22290;DHT22;11313;50.116;8.424;2023-09-19T08:58:03;25.00;61.80
22290;DHT22;11313;50.116;8.424;2023-09-19T09:00:30;25.00;61.80
22290;DHT22;11313;50.116;8.424;2023-09-19T09:02:57;25.00;61.80
22290;DHT22;11313;50.116;8.424;2023-09-19T09:05:24;25.00;61.70
22290;DHT22;11313;50.116;8.424;2023-09-19T09:07:50;25.00;61.70
22290;DHT22;11313;50.116;8.424;2023-09-19T09:10:17;25.00;61.70
22290;DHT22;11313;50.116;8.424;2023-09-19T09:12:43;25.00;61.70
22290;DHT22;11313;50.116;8.424;2023-09-19T09:15:09;25.00;61.70
22290;DHT22;11313;50.116;8.424;2023-09-19T09:17:37;25.10;61.70
22290;DHT22;11313;50.116;8.424;2023-09-19T09:20:03;25.10;61.70
22290;DHT22;11313;50.116;8.424;2023-09-19T09:22:33;25.10;61.70
22290;DHT22;11313;50.116;8.424;2023-09-19T09:24:59;25.10;61.50
22290;DHT22;11313;50.116;8.424;2023-09-19T09:27:26;25.10;61.50
22290;DHT22;11313;50.116;8.424;2023-09-19T09:29:53;25.10;61.50
22290;DHT22;11313;50.116;8.424;2023-09-19T09:32:28;25.10;61.50
22290;DHT22;11313;50.116;8.424;2023-09-19T09:34:58;25.10;61.50
22290;DHT22;11313;50.116;8.424;2023-09-19T09:37:24;25.10;61.50
22290;DHT22;11313;50.116;8.424;2023-09-19T09:39:59;25.10;61.40
22290;DHT22;11313;50.116;8.424;2023-09-19T09:42:44;25.10;61.40
22290;DHT22;11313;50.116;8.424;2023-09-19T09:45:25;25.10;61.40
22290;DHT22;11313;50.116;8.424;2023-09-19T09:48:03;25.10;61.40
22290;DHT22;11313;50.116;8.424;2023-09-19T09:50:31;25.10;61.30
22290;DHT22;11313;50.116;8.424;2023-09-19T09:53:27;25.10;61.30
22290;DHT22;11313;50.116;8.424;2023-09-19T09:56:01;25.10;61.20
22290;DHT22;11313;50.116;8.424;2023-09-19T09:58:30;25.10;61.10
22290;DHT22;11313;50.116;8.424;2023-09-19T10:00:58;25.10;61.00
22290;DHT22;11313;50.116;8.424;2023-09-19T10:06:04;25.10;61.10
22290;DHT22;11313;50.116;8.424;2023-09-19T10:09:04;25.10;61.10
22290;DHT22;11313;50.116;8.424;2023-09-19T10:11:44;25.10;61.10
22290;DHT22;11313;50.116;8.424;2023-09-19T10:14:11;25.10;61.10
22290;DHT22;11313;50.116;8.424;2023-09-19T10:16:41;25.10;61.00
22290;DHT22;11313;50.116;8.424;2023-09-19T10:19:11;25.10;61.00
22290;DHT22;11313;50.116;8.424;2023-09-19T10:21:39;25.10;61.10
22290;DHT22;11313;50.116;8.424;2023-09-19T10:24:05;25.10;61.00
22290;DHT22;11313;50.116;8.424;2023-09-19T10:26:35;25.10;61.00
22290;DHT22;11313;50.116;8.424;2023-09-19T10:29:01;25.10;61.10
22290;DHT22;11313;50.116;8.424;2023-09-19T10:31:29;25.10;61.10
22290;DHT22;11313;50.116;8.424;2023-09-19T10:34:02;25.10;60.90
22290;DHT22;11313;50.116;8.424;2023-09-19T10:36:32;25.10;61.00
22290;DHT22;11313;50.116;8.424;2023-09-19T10:39:02;25.20;60.90
22290;DHT22;11313;50.116;8.424;2023-09-19T10:41:31;25.20;61.00
22290;DHT22;11313;50.116;8.424;2023-09-19T10:44:02;25.20;60.20
22290;DHT22;11313;50.116;8.424;2023-09-19T10:46:28;25.10;59.70
22290;DHT22;11313;50.116;8.424;2023-09-19T10:48:59;25.10;59.00
22290;DHT22;11313;50.116;8.424;2023-09-19T10:51:29;25.10;58.80
22290;DHT22;11313;50.116;8.424;2023-09-19T10:54:01;25.10;58.50
22290;DHT22;11313;50.116;8.424;2023-09-19T10:56:34;25.10;58.40
22290;DHT22;11313;50.116;8.424;2023-09-19T10:59:10;25.10;58.10
22290;DHT22;11313;50.116;8.424;2023-09-19T11:01:43;25.10;58.10
22290;DHT22;11313;50.116;8.424;2023-09-19T11:04:29;25.10;58.20
22290;DHT22;11313;50.116;8.424;2023-09-19T11:07:12;25.10;58.10
22290;DHT22;11313;50.116;8.424;2023-09-19T11:09:44;25.10;57.90
22290;DHT22;11313;50.116;8.424;2023-09-19T11:15:07;25.10;57.60
22290;DHT22;11313;50.116;8.424;2023-09-19T11:17:37;25.10;57.40
22290;DHT22;11313;50.116;8.424;2023-09-19T11:30:48;25.10;57.40
22290;DHT22;11313;50.116;8.424;2023-09-19T11:33:25;25.10;57.60
22290;DHT22;11313;50.116;8.424;2023-09-19T11:36:11;25.10;57.50
22290;DHT22;11313;50.116;8.424;2023-09-19T11:46:27;25.10;57.20
22290;DHT22;11313;50.116;8.424;2023-09-19T11:48:53;25.10;56.90
22290;DHT22;11313;50.116;8.424;2023-09-19T11:51:20;25.10;57.30
22290;DHT22;11313;50.116;8.424;2023-09-19T11:53:58;25.10;57.60
22290;DHT22;11313;50.116;8.424;2023-09-19T11:56:27;25.10;57.50
22290;DHT22;11313;50.116;8.424;2023-09-19T11:58:56;25.10;57.60
22290;DHT22;11313;50.116;8.424;2023-09-19T12:01:31;25.10;57.60
22290;DHT22;11313;50.116;8.424;2023-09-19T12:03:58;25.20;57.70
22290;DHT22;11313;50.116;8.424;2023-09-19T12:06:25;25.20;57.70
22290;DHT22;11313;50.116;8.424;2023-09-19T12:08:52;25.20;57.70
22290;DHT22;11313;50.116;8.424;2023-09-19T12:11:19;25.20;57.80
22290;DHT22;11313;50.116;8.424;2023-09-19T12:13:47;25.20;57.90
22290;DHT22;11313;50.116;8.424;2023-09-19T12:16:17;25.20;57.90
22290;DHT22;11313;50.116;8.424;2023-09-19T12:18:44;25.20;57.90
22290;DHT22;11313;50.116;8.424;2023-09-19T12:21:25;25.20;57.80
22290;DHT22;11313;50.116;8.424;2023-09-19T12:24:11;25.20;57.60
22290;DHT22;11313;50.116;8.424;2023-09-19T12:26:43;25.20;57.30
22290;DHT22;11313;50.116;8.424;2023-09-19T12:29:18;25.10;57.30
22290;DHT22;11313;50.116;8.424;2023-09-19T12:31:54;25.20;57.60
22290;DHT22;11313;50.116;8.424;2023-09-19T12:34:25;25.20;57.70
22290;DHT22;11313;50.116;8.424;2023-09-19T12:37:11;25.20;57.50
22290;DHT22;11313;50.116;8.424;2023-09-19T12:39:47;25.20;57.50
22290;DHT22;11313;50.116;8.424;2023-09-19T12:42:20;25.20;57.70
22290;DHT22;11313;50.116;8.424;2023-09-19T12:44:47;25.20;57.60
22290;DHT22;11313;50.116;8.424;2023-09-19T12:47:15;25.20;57.50
22290;DHT22;11313;50.116;8.424;2023-09-19T12:50:16;25.20;57.30
22290;DHT22;11313;50.116;8.424;2023-09-19T12:52:52;25.20;57.30
22290;DHT22;11313;50.116;8.424;2023-09-19T12:55:30;25.20;57.90
22290;DHT22;11313;50.116;8.424;2023-09-19T13:00:40;25.20;57.40
22290;DHT22;11313;50.116;8.424;2023-09-19T13:03:25;25.20;57.30
22290;DHT22;11313;50.116;8.424;2023-09-19T13:05:58;25.20;57.40
22290;DHT22;11313;50.116;8.424;2023-09-19T13:08:30;25.20;57.30
22290;DHT22;11313;50.116;8.424;2023-09-19T13:11:11;25.20;57.40
22290;DHT22;11313;50.116;8.424;2023-09-19T13:13:43;25.20;57.30
22290;DHT22;11313;50.116;8.424;2023-09-19T13:16:10;25.20;56.80
22290;DHT22;11313;50.116;8.424;2023-09-19T13:18:43;25.20;56.50
22290;DHT22;11313;50.116;8.424;2023-09-19T13:21:13;25.30;56.20
22290;DHT22;11313;50.116;8.424;2023-09-19T13:23:54;25.20;56.30
22290;DHT22;11313;50.116;8.424;2023-09-19T13:26:27;25.20;56.30
22290;DHT22;11313;50.116;8.424;2023-09-19T13:28:54;25.20;56.40
22290;DHT22;11313;50.116;8.424;2023-09-19T13:31:19;25.20;56.70
22290;DHT22;11313;50.116;8.424;2023-09-19T13:33:47;25.20;56.90
22290;DHT22;11313;50.116;8.424;2023-09-19T13:36:13;25.20;56.70
22290;DHT22;11313;50.116;8.424;2023-09-19T13:38:40;25.20;56.80
22290;DHT22;11313;50.116;8.424;2023-09-19T13:41:08;25.20;56.90
22290;DHT22;11313;50.116;8.424;2023-09-19T13:43:35;25.20;57.10
22290;DHT22;11313;50.116;8.424;2023-09-19T13:46:01;25.20;57.20
22290;DHT22;11313;50.116;8.424;2023-09-19T13:48:28;25.30;57.10
22290;DHT22;11313;50.116;8.424;2023-09-19T13:50:55;25.30;57.10
22290;DHT22;11313;50.116;8.424;2023-09-19T13:53:21;25.20;56.90
22290;DHT22;11313;50.116;8.424;2023-09-19T13:55:46;25.30;57.10
22290;DHT22;11313;50.116;8.424;2023-09-19T13:58:14;25.30;57.00
22290;DHT22;11313;50.116;8.424;2023-09-19T14:00:39;25.30;56.80
22290;DHT22;11313;50.116;8.424;2023-09-19T14:03:05;25.20;56.80
22290;DHT22;11313;50.116;8.424;2023-09-19T14:05:31;25.20;56.70
22290;DHT22;11313;50.116;8.424;2023-09-19T14:07:56;25.20;56.70
22290;DHT22;11313;50.116;8.424;2023-09-19T14:10:24;25.30;57.00
22290;DHT22;11313;50.116;8.424;2023-09-19T14:12:50;25.30;57.20
22290;DHT22;11313;50.116;8.424;2023-09-19T14:15:16;25.30;57.00
22290;DHT22;11313;50.116;8.424;2023-09-19T14:17:41;25.30;57.20
22290;DHT22;11313;50.116;8.424;2023-09-19T14:20:13;25.30;57.30
22290;DHT22;11313;50.116;8.424;2023-09-19T14:22:39;25.30;57.30
22290;DHT22;11313;50.116;8.424;2023-09-19T14:25:05;25.30;56.90
22290;DHT22;11313;50.116;8.424;2023-09-19T14:27:31;25.30;56.80
22290;DHT22;11313;50.116;8.424;2023-09-19T14:29:56;25.30;56.90
22290;DHT22;11313;50.116;8.424;2023-09-19T14:32:23;25.30;57.20
22290;DHT22;11313;50.116;8.424;2023-09-19T14:34:48;25.30;57.30
22290;DHT22;11313;50.116;8.424;2023-09-19T14:37:14;25.30;57.30
22290;DHT22;11313;50.116;8.424;2023-09-19T14:39:42;25.30;57.40
22290;DHT22;11313;50.116;8.424;2023-09-19T14:42:10;25.30;57.40
22290;DHT22;11313;50.116;8.424;2023-09-19T14:44:36;25.30;57.50
22290;DHT22;11313;50.116;8.424;2023-09-19T14:47:03;25.30;57.50
22290;DHT22;11313;50.116;8.424;2023-09-19T14:49:33;25.30;57.50
22290;DHT22;11313;50.116;8.424;2023-09-19T14:51:59;25.30;57.60
22290;DHT22;11313;50.116;8.424;2023-09-19T14:54:24;25.30;57.60
22290;DHT22;11313;50.116;8.424;2023-09-19T14:56:50;25.30;57.60
22290;DHT22;11313;50.116;8.424;2023-09-19T14:59:19;25.30;57.40
22290;DHT22;11313;50.116;8.424;2023-09-19T15:01:45;25.30;57.20
22290;DHT22;11313;50.116;8.424;2023-09-19T15:04:11;25.30;57.30
22290;DHT22;11313;50.116;8.424;2023-09-19T15:06:36;25.30;57.40
22290;DHT22;11313;50.116;8.424;2023-09-19T15:09:02;25.30;57.50
22290;DHT22;11313;50.116;8.424;2023-09-19T15:11:30;25.30;57.50
22290;DHT22;11313;50.116;8.424;2023-09-19T15:13:55;25.30;57.50
22290;DHT22;11313;50.116;8.424;2023-09-19T15:16:21;25.30;57.40
22290;DHT22;11313;50.116;8.424;2023-09-19T15:18:47;25.30;57.50
22290;DHT22;11313;50.116;8.424;2023-09-19T15:21:13;25.30;57.50
22290;DHT22;11313;50.116;8.424;2023-09-19T15:23:41;25.30;57.60
22290;DHT22;11313;50.116;8.424;2023-09-19T15:26:08;25.30;57.70
22290;DHT22;11313;50.116;8.424;2023-09-19T15:28:34;25.30;57.60
22290;DHT22;11313;50.116;8.424;2023-09-19T15:31:07;25.30;57.60
22290;DHT22;11313;50.116;8.424;2023-09-19T15:33:34;25.30;57.60
22290;DHT22;11313;50.116;8.424;2023-09-19T15:36:04;25.30;57.70
22290;DHT22;11313;50.116;8.424;2023-09-19T15:38:30;25.30;57.70
22290;DHT22;11313;50.116;8.424;2023-09-19T15:40:57;25.30;57.60
22290;DHT22;11313;50.116;8.424;2023-09-19T15:43:23;25.30;57.50
22290;DHT22;11313;50.116;8.424;2023-09-19T15:45:49;25.30;57.50
22290;DHT22;11313;50.116;8.424;2023-09-19T15:48:15;25.30;57.60
22290;DHT22;11313;50.116;8.424;2023-09-19T15:50:41;25.30;57.60
22290;DHT22;11313;50.116;8.424;2023-09-19T15:53:08;25.30;57.60
22290;DHT22;11313;50.116;8.424;2023-09-19T15:55:41;25.30;57.50
22290;DHT22;11313;50.116;8.424;2023-09-19T15:58:07;25.30;57.40
22290;DHT22;11313;50.116;8.424;2023-09-19T16:00:33;25.30;57.40
22290;DHT22;11313;50.116;8.424;2023-09-19T16:03:02;25.30;57.50
22290;DHT22;11313;50.116;8.424;2023-09-19T16:05:28;25.30;57.50
22290;DHT22;11313;50.116;8.424;2023-09-19T16:07:54;25.30;57.50
22290;DHT22;11313;50.116;8.424;2023-09-19T16:10:19;25.30;57.60
22290;DHT22;11313;50.116;8.424;2023-09-19T16:12:46;25.30;57.70
22290;DHT22;11313;50.116;8.424;2023-09-19T16:15:11;25.30;57.80
22290;DHT22;11313;50.116;8.424;2023-09-19T16:17:37;25.30;57.90
22290;DHT22;11313;50.116;8.424;2023-09-19T16:20:03;25.30;57.90